sensor_id;sensor_type;location;lat;lon;timestamp;pressure;altitude;pressure_sealevel;temperature;humidity
59104;BME280;51449;51.676;5.812;2023-03-04T00:01:00;102578.38;;;6.88;61.47
59104;BME280;51449;51.676;5.812;2023-03-04T00:03:22;102570.16;;;6.88;61.82
59104;BME280;51449;51.676;5.812;2023-03-04T00:05:43;102570.16;;;6.88;61.44
59104;BME280;51449;51.676;5.812;2023-03-04T00:08:05;102564.97;;;6.86;61.63
59104;BME280;51449;51.676;5.812;2023-03-04T00:10:27;102580.59;;;6.85;61.49
59104;BME280;51449;51.676;5.812;2023-03-04T00:12:49;102570.72;;;6.84;62.26
59104;BME280;51449;51.676;5.812;2023-03-04T00:15:10;102571.81;;;6.83;61.83
59104;BME280;51449;51.676;5.812;2023-03-04T00:17:32;102567.41;;;6.82;61.76
59104;BME280;51449;51.676;5.812;2023-03-04T00:19:54;102564.13;;;6.80;61.58
59104;BME280;51449;51.676;5.812;2023-03-04T00:22:16;102575.09;;;6.80;61.76
59104;BME280;51449;51.676;5.812;2023-03-04T00:24:38;102564.13;;;6.80;61.62
59104;BME280;51449;51.676;5.812;2023-03-04T00:27:00;102562.78;;;6.83;61.90
59104;BME280;51449;51.676;5.812;2023-03-04T00:29:22;102567.69;;;6.81;62.43
59104;BME280;51449;51.676;5.812;2023-03-04T00:31:43;102564.94;;;6.81;61.59
59104;BME280;51449;51.676;5.812;2023-03-04T00:34:05;102567.69;;;6.81;61.81
59104;BME280;51449;51.676;5.812;2023-03-04T00:36:27;102556.97;;;6.79;62.17
59104;BME280;51449;51.676;5.812;2023-03-04T00:38:49;102566.31;;;6.78;61.70
59104;BME280;51449;51.676;5.812;2023-03-04T00:41:11;102559.72;;;6.79;62.21
59104;BME280;51449;51.676;5.812;2023-03-04T00:43:34;102556.97;;;6.79;61.87
59104;BME280;51449;51.676;5.812;2023-03-04T00:45:56;102557.53;;;6.76;62.19
59104;BME280;51449;51.676;5.812;2023-03-04T00:48:18;102558.34;;;6.77;61.88
59104;BME280;51449;51.676;5.812;2023-03-04T00:50:42;102559.16;;;6.77;62.19
59104;BME280;51449;51.676;5.812;2023-03-04T00:53:04;102565.75;;;6.76;61.62
59104;BME280;51449;51.676;5.812;2023-03-04T00:55:26;102566.81;;;6.75;62.04
59104;BME280;51449;51.676;5.812;2023-03-04T00:57:48;102565.19;;;6.74;61.36
59104;BME280;51449;51.676;5.812;2023-03-04T01:00:12;102567.09;;;6.74;61.64
59104;BME280;51449;51.676;5.812;2023-03-04T01:02:34;102565.72;;;6.71;61.47
59104;BME280;51449;51.676;5.812;2023-03-04T01:04:56;102563.78;;;6.72;61.36
59104;BME280;51449;51.676;5.812;2023-03-04T01:07:18;102563.78;;;6.72;61.61
59104;BME280;51449;51.676;5.812;2023-03-04T01:09:39;102559.94;;;6.73;62.17
59104;BME280;51449;51.676;5.812;2023-03-04T01:12:01;102567.34;;;6.72;62.04
59104;BME280;51449;51.676;5.812;2023-03-04T01:14:24;102567.34;;;6.72;61.88
59104;BME280;51449;51.676;5.812;2023-03-04T01:16:47;102569.84;;;6.74;61.87
59104;BME280;51449;51.676;5.812;2023-03-04T01:19:10;102565.19;;;6.74;62.29
59104;BME280;51449;51.676;5.812;2023-03-04T01:21:32;102566.00;;;6.75;62.14
59104;BME280;51449;51.676;5.812;2023-03-04T01:23:53;102572.56;;;6.74;62.03
59104;BME280;51449;51.676;5.812;2023-03-04T01:26:15;102558.88;;;6.74;62.16
59104;BME280;51449;51.676;5.812;2023-03-04T01:28:36;102562.44;;;6.74;62.06
59104;BME280;51449;51.676;5.812;2023-03-04T01:31:01;102565.19;;;6.74;62.38
59104;BME280;51449;51.676;5.812;2023-03-04T01:33:23;102555.31;;;6.73;61.97
59104;BME280;51449;51.676;5.812;2023-03-04T01:35:45;102558.88;;;6.74;62.14
59104;BME280;51449;51.676;5.812;2023-03-04T01:38:07;102555.84;;;6.70;62.19
59104;BME280;51449;51.676;5.812;2023-03-04T01:40:29;102553.38;;;6.69;62.18
59104;BME280;51449;51.676;5.812;2023-03-04T01:42:51;102548.47;;;6.71;62.18
59104;BME280;51449;51.676;5.812;2023-03-04T01:45:15;102544.88;;;6.70;62.58
59104;BME280;51449;51.676;5.812;2023-03-04T01:47:39;102541.56;;;6.68;62.28
59104;BME280;51449;51.676;5.812;2023-03-04T01:50:10;102535.84;;;6.70;62.08
59104;BME280;51449;51.676;5.812;2023-03-04T01:52:39;102545.41;;;6.67;62.31
59104;BME280;51449;51.676;5.812;2023-03-04T01:55:10;102544.03;;;6.64;62.49
59104;BME280;51449;51.676;5.812;2023-03-04T01:57:38;102530.59;;;6.63;62.30
59104;BME280;51449;51.676;5.812;2023-03-04T02:00:24;102521.31;;;6.64;62.42
59104;BME280;51449;51.676;5.812;2023-03-04T02:02:49;102528.13;;;6.61;62.80
59104;BME280;51449;51.676;5.812;2023-03-04T02:05:14;102526.47;;;6.60;62.67
59104;BME280;51449;51.676;5.812;2023-03-04T02:07:36;102525.66;;;6.60;62.58
59104;BME280;51449;51.676;5.812;2023-03-04T02:09:58;102521.00;;;6.60;62.82
59104;BME280;51449;51.676;5.812;2023-03-04T02:12:20;102521.84;;;6.61;62.97
59104;BME280;51449;51.676;5.812;2023-03-04T02:14:41;102520.75;;;6.62;62.63
59104;BME280;51449;51.676;5.812;2023-03-04T02:17:09;102510.34;;;6.64;62.77
59104;BME280;51449;51.676;5.812;2023-03-04T02:19:52;102509.53;;;6.63;63.35
59104;BME280;51449;51.676;5.812;2023-03-04T02:22:16;102508.69;;;6.63;63.16
59104;BME280;51449;51.676;5.812;2023-03-04T02:24:53;102511.41;;;6.63;63.23
59104;BME280;51449;51.676;5.812;2023-03-04T02:27:20;102501.81;;;6.60;62.92
59104;BME280;51449;51.676;5.812;2023-03-04T02:29:43;102514.13;;;6.58;63.39
59104;BME280;51449;51.676;5.812;2023-03-04T02:32:04;102501.53;;;6.57;63.53
59104;BME280;51449;51.676;5.812;2023-03-04T02:34:29;102502.63;;;6.56;63.20
59104;BME280;51449;51.676;5.812;2023-03-04T02:36:54;102505.09;;;6.57;63.42
59104;BME280;51449;51.676;5.812;2023-03-04T02:41:42;102493.00;;;6.53;63.56
59104;BME280;51449;51.676;5.812;2023-03-04T02:44:34;102501.78;;;6.55;64.20
59104;BME280;51449;51.676;5.812;2023-03-04T02:46:58;102492.47;;;6.51;63.64
59104;BME280;51449;51.676;5.812;2023-03-04T02:49:21;102492.47;;;6.51;63.60
59104;BME280;51449;51.676;5.812;2023-03-04T02:51:44;102497.69;;;6.53;63.64
59104;BME280;51449;51.676;5.812;2023-03-04T02:54:18;102491.94;;;6.54;63.76
59104;BME280;51449;51.676;5.812;2023-03-04T02:56:50;102496.84;;;6.52;64.36
59104;BME280;51449;51.676;5.812;2023-03-04T02:59:15;102489.47;;;6.53;64.29
59104;BME280;51449;51.676;5.812;2023-03-04T03:01:38;102496.59;;;6.54;64.13
59104;BME280;51449;51.676;5.812;2023-03-04T03:03:59;102493.88;;;6.54;64.24
59104;BME280;51449;51.676;5.812;2023-03-04T03:06:21;102484.28;;;6.51;64.56
59104;BME280;51449;51.676;5.812;2023-03-04T03:08:43;102487.81;;;6.52;64.63
59104;BME280;51449;51.676;5.812;2023-03-04T03:11:05;102480.44;;;6.52;64.67
59104;BME280;51449;51.676;5.812;2023-03-04T03:13:30;102478.78;;;6.51;64.72
59104;BME280;51449;51.676;5.812;2023-03-04T03:15:52;102478.78;;;6.51;64.59
59104;BME280;51449;51.676;5.812;2023-03-04T03:18:17;102470.28;;;6.48;65.02
59104;BME280;51449;51.676;5.812;2023-03-04T03:20:39;102470.28;;;6.48;64.88
59104;BME280;51449;51.676;5.812;2023-03-04T03:23:01;102466.47;;;6.49;64.97
59104;BME280;51449;51.676;5.812;2023-03-04T03:25:23;102470.00;;;6.49;64.56
59104;BME280;51449;51.676;5.812;2023-03-04T03:27:47;102462.06;;;6.48;64.22
59104;BME280;51449;51.676;5.812;2023-03-04T03:30:12;102470.00;;;6.49;64.30
59104;BME280;51449;51.676;5.812;2023-03-04T03:32:35;102466.97;;;6.46;64.49
59104;BME280;51449;51.676;5.812;2023-03-04T03:34:57;102465.91;;;6.47;64.39
59104;BME280;51449;51.676;5.812;2023-03-04T03:37:19;102473.81;;;6.48;64.69
59104;BME280;51449;51.676;5.812;2023-03-04T03:39:42;102467.78;;;6.46;64.46
59104;BME280;51449;51.676;5.812;2023-03-04T03:42:04;102466.16;;;6.45;64.70
59104;BME280;51449;51.676;5.812;2023-03-04T03:44:25;102468.63;;;6.47;65.04
59104;BME280;51449;51.676;5.812;2023-03-04T03:46:47;102460.13;;;6.48;64.44
59104;BME280;51449;51.676;5.812;2023-03-04T03:49:09;102458.25;;;6.49;64.59
59104;BME280;51449;51.676;5.812;2023-03-04T03:51:30;102461.50;;;6.51;64.43
59104;BME280;51449;51.676;5.812;2023-03-04T03:53:52;102459.88;;;6.50;64.70
59104;BME280;51449;51.676;5.812;2023-03-04T03:56:14;102452.22;;;6.52;64.08
59104;BME280;51449;51.676;5.812;2023-03-04T03:58:35;102464.00;;;6.52;64.12
59104;BME280;51449;51.676;5.812;2023-03-04T04:00:57;102462.91;;;6.53;64.16
59104;BME280;51449;51.676;5.812;2023-03-04T04:03:19;102462.63;;;6.55;64.15
59104;BME280;51449;51.676;5.812;2023-03-04T04:05:41;102459.09;;;6.54;64.37
59104;BME280;51449;51.676;5.812;2023-03-04T04:08:03;102461.00;;;6.54;63.91
59104;BME280;51449;51.676;5.812;2023-03-04T04:10:25;102460.72;;;6.55;64.45
59104;BME280;51449;51.676;5.812;2023-03-04T04:12:47;102461.81;;;6.54;64.23
59104;BME280;51449;51.676;5.812;2023-03-04T04:15:10;102463.47;;;6.55;64.00
59104;BME280;51449;51.676;5.812;2023-03-04T04:17:33;102466.75;;;6.57;64.40
59104;BME280;51449;51.676;5.812;2023-03-04T04:19:54;102460.47;;;6.57;64.49
59104;BME280;51449;51.676;5.812;2023-03-04T04:22:18;102461.03;;;6.59;64.16
59104;BME280;51449;51.676;5.812;2023-03-04T04:24:41;102464.59;;;6.59;64.14
59104;BME280;51449;51.676;5.812;2023-03-04T04:27:03;102465.69;;;6.58;64.11
59104;BME280;51449;51.676;5.812;2023-03-04T04:29:25;102470.06;;;6.59;64.37
59104;BME280;51449;51.676;5.812;2023-03-04T04:31:46;102470.06;;;6.59;64.03
59104;BME280;51449;51.676;5.812;2023-03-04T04:34:08;102463.75;;;6.59;64.40
59104;BME280;51449;51.676;5.812;2023-03-04T04:36:30;102459.66;;;6.56;64.33
59104;BME280;51449;51.676;5.812;2023-03-04T04:38:51;102464.28;;;6.56;64.70
59104;BME280;51449;51.676;5.812;2023-03-04T04:41:20;102469.75;;;6.56;64.57
59104;BME280;51449;51.676;5.812;2023-03-04T04:43:43;102470.28;;;6.53;64.20
59104;BME280;51449;51.676;5.812;2023-03-04T04:46:05;102467.56;;;6.53;63.99
59104;BME280;51449;51.676;5.812;2023-03-04T04:48:27;102468.66;;;6.52;64.49
59104;BME280;51449;51.676;5.812;2023-03-04T04:50:53;102467.00;;;6.51;64.28
59104;BME280;51449;51.676;5.812;2023-03-04T04:53:16;102465.63;;;6.53;64.28
59104;BME280;51449;51.676;5.812;2023-03-04T04:55:38;102464.00;;;6.52;64.97
59104;BME280;51449;51.676;5.812;2023-03-04T04:57:59;102472.47;;;6.51;64.47
59104;BME280;51449;51.676;5.812;2023-03-04T05:00:21;102474.66;;;6.49;64.58
59104;BME280;51449;51.676;5.812;2023-03-04T05:02:43;102476.84;;;6.47;65.08
59104;BME280;51449;51.676;5.812;2023-03-04T05:05:06;102472.72;;;6.44;65.09
59104;BME280;51449;51.676;5.812;2023-03-04T05:07:28;102469.44;;;6.42;65.10
59104;BME280;51449;51.676;5.812;2023-03-04T05:09:49;102471.88;;;6.43;64.96
59104;BME280;51449;51.676;5.812;2023-03-04T05:12:11;102465.88;;;6.41;64.86
59104;BME280;51449;51.676;5.812;2023-03-04T05:14:33;102478.47;;;6.42;64.46
59104;BME280;51449;51.676;5.812;2023-03-04T05:16:54;102472.97;;;6.42;64.81
59104;BME280;51449;51.676;5.812;2023-03-04T05:19:16;102471.34;;;6.41;64.60
59104;BME280;51449;51.676;5.812;2023-03-04T05:21:38;102471.88;;;6.43;64.72
59104;BME280;51449;51.676;5.812;2023-03-04T05:23:59;102468.59;;;6.41;64.32
59104;BME280;51449;51.676;5.812;2023-03-04T05:26:21;102467.75;;;6.41;64.59
59104;BME280;51449;51.676;5.812;2023-03-04T05:28:43;102469.44;;;6.42;64.66
59104;BME280;51449;51.676;5.812;2023-03-04T05:31:05;102467.75;;;6.41;64.91
59104;BME280;51449;51.676;5.812;2023-03-04T05:33:28;102473.78;;;6.43;64.97
59104;BME280;51449;51.676;5.812;2023-03-04T05:35:50;102468.59;;;6.41;64.24
59104;BME280;51449;51.676;5.812;2023-03-04T05:38:13;102472.16;;;6.42;64.46
59104;BME280;51449;51.676;5.812;2023-03-04T05:40:37;102469.69;;;6.40;64.90
59104;BME280;51449;51.676;5.812;2023-03-04T05:42:59;102475.44;;;6.39;64.93
59104;BME280;51449;51.676;5.812;2023-03-04T05:45:22;102466.38;;;6.38;64.90
59104;BME280;51449;51.676;5.812;2023-03-04T05:47:44;102469.13;;;6.38;65.16
59104;BME280;51449;51.676;5.812;2023-03-04T05:50:06;102474.59;;;6.38;65.06
59104;BME280;51449;51.676;5.812;2023-03-04T05:52:28;102477.59;;;6.37;65.29
59104;BME280;51449;51.676;5.812;2023-03-04T05:54:49;102480.34;;;6.37;65.46
59104;BME280;51449;51.676;5.812;2023-03-04T05:57:11;102481.41;;;6.36;65.41
59104;BME280;51449;51.676;5.812;2023-03-04T05:59:32;102474.03;;;6.36;65.88
59104;BME280;51449;51.676;5.812;2023-03-04T06:01:54;102481.16;;;6.37;65.38
59104;BME280;51449;51.676;5.812;2023-03-04T06:04:16;102476.50;;;6.38;65.33
59104;BME280;51449;51.676;5.812;2023-03-04T06:06:37;102476.25;;;6.39;65.63
59104;BME280;51449;51.676;5.812;2023-03-04T06:08:59;102481.44;;;6.41;65.48
59104;BME280;51449;51.676;5.812;2023-03-04T06:11:21;102478.72;;;6.41;65.50
59104;BME280;51449;51.676;5.812;2023-03-04T06:13:43;102486.91;;;6.41;65.15
59104;BME280;51449;51.676;5.812;2023-03-04T06:16:05;102488.28;;;6.38;65.49
59104;BME280;51449;51.676;5.812;2023-03-04T06:18:27;102488.56;;;6.37;66.14
59104;BME280;51449;51.676;5.812;2023-03-04T06:20:50;102480.59;;;6.35;65.46
59104;BME280;51449;51.676;5.812;2023-03-04T06:23:11;102489.63;;;6.36;65.29
59104;BME280;51449;51.676;5.812;2023-03-04T06:25:33;102490.44;;;6.36;65.95
59104;BME280;51449;51.676;5.812;2023-03-04T06:27:55;102487.72;;;6.36;65.73
59104;BME280;51449;51.676;5.812;2023-03-04T06:30:17;102495.94;;;6.36;65.87
59104;BME280;51449;51.676;5.812;2023-03-04T06:32:39;102495.94;;;6.36;66.08
59104;BME280;51449;51.676;5.812;2023-03-04T06:35:05;102495.94;;;6.36;65.96
59104;BME280;51449;51.676;5.812;2023-03-04T06:37:27;102493.72;;;6.33;66.28
59104;BME280;51449;51.676;5.812;2023-03-04T06:39:48;102501.94;;;6.33;65.66
59104;BME280;51449;51.676;5.812;2023-03-04T06:42:11;102506.84;;;6.31;65.25
59104;BME280;51449;51.676;5.812;2023-03-04T06:44:33;102506.59;;;6.33;66.11
59104;BME280;51449;51.676;5.812;2023-03-04T06:46:55;102502.75;;;6.34;66.11
59104;BME280;51449;51.676;5.812;2023-03-04T06:49:17;102496.22;;;6.35;66.04
59104;BME280;51449;51.676;5.812;2023-03-04T06:51:38;102502.75;;;6.34;65.56
59104;BME280;51449;51.676;5.812;2023-03-04T06:54:00;102505.78;;;6.32;65.85
59104;BME280;51449;51.676;5.812;2023-03-04T06:56:22;102506.59;;;6.33;66.32
59104;BME280;51449;51.676;5.812;2023-03-04T06:58:44;102503.59;;;6.34;65.85
59104;BME280;51449;51.676;5.812;2023-03-04T07:01:20;102502.25;;;6.37;66.03
59104;BME280;51449;51.676;5.812;2023-03-04T07:03:47;102504.13;;;6.36;66.40
59104;BME280;51449;51.676;5.812;2023-03-04T07:06:11;102507.97;;;6.35;65.73
59104;BME280;51449;51.676;5.812;2023-03-04T07:08:34;102502.75;;;6.34;66.63
59104;BME280;51449;51.676;5.812;2023-03-04T07:10:56;102509.63;;;6.36;67.13
59104;BME280;51449;51.676;5.812;2023-03-04T07:13:17;102509.34;;;6.38;66.42
59104;BME280;51449;51.676;5.812;2023-03-04T07:15:39;102501.16;;;6.38;66.77
59104;BME280;51449;51.676;5.812;2023-03-04T07:18:01;102512.91;;;6.38;67.04
59104;BME280;51449;51.676;5.812;2023-03-04T07:20:22;102504.69;;;6.38;67.00
59104;BME280;51449;51.676;5.812;2023-03-04T07:22:44;102509.94;;;6.40;67.08
59104;BME280;51449;51.676;5.812;2023-03-04T07:25:06;102511.84;;;6.39;66.90
59104;BME280;51449;51.676;5.812;2023-03-04T07:27:28;102509.09;;;6.39;67.12
59104;BME280;51449;51.676;5.812;2023-03-04T07:29:50;102517.88;;;6.41;67.20
59104;BME280;51449;51.676;5.812;2023-03-04T07:32:11;102505.00;;;6.42;67.37
59104;BME280;51449;51.676;5.812;2023-03-04T07:34:33;102515.69;;;6.43;67.64
59104;BME280;51449;51.676;5.812;2023-03-04T07:36:55;102523.66;;;6.45;67.18
59104;BME280;51449;51.676;5.812;2023-03-04T07:39:16;102526.41;;;6.50;67.35
59104;BME280;51449;51.676;5.812;2023-03-04T07:41:39;102517.13;;;6.51;67.16
59104;BME280;51449;51.676;5.812;2023-03-04T07:44:02;102528.34;;;6.55;66.89
59104;BME280;51449;51.676;5.812;2023-03-04T07:46:25;102519.59;;;6.58;67.26
59104;BME280;51449;51.676;5.812;2023-03-04T07:48:47;102522.91;;;6.60;67.40
59104;BME280;51449;51.676;5.812;2023-03-04T07:51:14;102536.06;;;6.63;67.14
59104;BME280;51449;51.676;5.812;2023-03-04T07:53:40;102529.53;;;6.64;67.04
59104;BME280;51449;51.676;5.812;2023-03-04T07:56:03;102531.16;;;6.65;67.34
59104;BME280;51449;51.676;5.812;2023-03-04T07:58:25;102535.00;;;6.64;67.28
59104;BME280;51449;51.676;5.812;2023-03-04T08:00:47;102534.19;;;6.69;67.22
59104;BME280;51449;51.676;5.812;2023-03-04T08:03:08;102535.03;;;6.69;67.80
59104;BME280;51449;51.676;5.812;2023-03-04T08:05:30;102545.44;;;6.72;67.25
59104;BME280;51449;51.676;5.812;2023-03-04T08:07:52;102538.03;;;6.73;67.75
59104;BME280;51449;51.676;5.812;2023-03-04T08:10:14;102537.53;;;6.76;67.17
59104;BME280;51449;51.676;5.812;2023-03-04T08:12:35;102539.19;;;6.82;67.61
59104;BME280;51449;51.676;5.812;2023-03-04T08:14:59;102547.75;;;6.91;67.74
59104;BME280;51449;51.676;5.812;2023-03-04T08:17:20;102544.22;;;7.00;67.42
59104;BME280;51449;51.676;5.812;2023-03-04T08:19:42;102546.19;;;7.10;67.54
59104;BME280;51449;51.676;5.812;2023-03-04T08:22:04;102545.09;;;7.16;66.89
59104;BME280;51449;51.676;5.812;2023-03-04T08:24:26;102544.03;;;7.22;67.53
59104;BME280;51449;51.676;5.812;2023-03-04T08:26:49;102545.13;;;7.26;67.61
59104;BME280;51449;51.676;5.812;2023-03-04T08:29:14;102541.31;;;7.27;67.67
59104;BME280;51449;51.676;5.812;2023-03-04T08:31:41;102537.19;;;7.25;68.14
59104;BME280;51449;51.676;5.812;2023-03-04T08:34:03;102548.72;;;7.27;68.27
59104;BME280;51449;51.676;5.812;2023-03-04T08:36:26;102541.84;;;7.24;68.60
59104;BME280;51449;51.676;5.812;2023-03-04T08:38:47;102544.31;;;7.26;68.78
59104;BME280;51449;51.676;5.812;2023-03-04T08:41:09;102553.41;;;7.32;68.75
59104;BME280;51449;51.676;5.812;2023-03-04T08:43:32;102550.66;;;7.37;68.91
59104;BME280;51449;51.676;5.812;2023-03-04T08:45:55;102547.94;;;7.42;68.89
59104;BME280;51449;51.676;5.812;2023-03-04T08:48:17;102547.66;;;7.43;68.79
59104;BME280;51449;51.676;5.812;2023-03-04T08:50:39;102550.16;;;7.50;68.95
59104;BME280;51449;51.676;5.812;2023-03-04T08:53:01;102544.13;;;7.53;68.56
59104;BME280;51449;51.676;5.812;2023-03-04T08:55:22;102549.59;;;7.58;67.83
59104;BME280;51449;51.676;5.812;2023-03-04T08:57:44;102544.13;;;7.58;68.05
59104;BME280;51449;51.676;5.812;2023-03-04T09:00:07;102537.56;;;7.59;67.49
59104;BME280;51449;51.676;5.812;2023-03-04T09:02:29;102546.06;;;7.63;67.38
59104;BME280;51449;51.676;5.812;2023-03-04T09:04:50;102538.13;;;7.66;68.17
59104;BME280;51449;51.676;5.812;2023-03-04T09:07:12;102542.50;;;7.78;67.72
59104;BME280;51449;51.676;5.812;2023-03-04T09:09:34;102539.50;;;7.84;67.51
59104;BME280;51449;51.676;5.812;2023-03-04T09:11:56;102532.66;;;7.87;67.13
59104;BME280;51449;51.676;5.812;2023-03-04T09:14:18;102537.06;;;7.93;66.97
59104;BME280;51449;51.676;5.812;2023-03-04T09:16:39;102534.03;;;8.00;66.87
59104;BME280;51449;51.676;5.812;2023-03-04T09:19:01;102531.56;;;8.13;66.49
59104;BME280;51449;51.676;5.812;2023-03-04T09:21:23;102531.28;;;8.20;66.51
59104;BME280;51449;51.676;5.812;2023-03-04T09:23:44;102521.13;;;8.26;66.23
59104;BME280;51449;51.676;5.812;2023-03-04T09:26:14;102528.25;;;8.32;65.57
59104;BME280;51449;51.676;5.812;2023-03-04T09:28:41;102520.28;;;8.30;65.16
59104;BME280;51449;51.676;5.812;2023-03-04T09:31:10;102523.84;;;8.36;65.75
59104;BME280;51449;51.676;5.812;2023-03-04T09:33:33;102509.56;;;8.39;65.74
59104;BME280;51449;51.676;5.812;2023-03-04T09:35:54;102517.00;;;8.49;65.37
59104;BME280;51449;51.676;5.812;2023-03-04T09:38:19;102511.50;;;8.54;65.86
59104;BME280;51449;51.676;5.812;2023-03-04T09:40:47;102509.28;;;8.61;65.62
59104;BME280;51449;51.676;5.812;2023-03-04T09:43:19;102511.41;;;8.79;65.45
59104;BME280;51449;51.676;5.812;2023-03-04T09:45:57;102510.84;;;8.88;64.52
59104;BME280;51449;51.676;5.812;2023-03-04T09:48:27;102507.28;;;8.82;63.87
59104;BME280;51449;51.676;5.812;2023-03-04T09:53:33;102503.72;;;8.76;64.14
59104;BME280;51449;51.676;5.812;2023-03-04T09:56:10;102516.13;;;8.69;64.11
59104;BME280;51449;51.676;5.812;2023-03-04T09:58:57;102523.56;;;8.58;64.14
59104;BME280;51449;51.676;5.812;2023-03-04T10:01:40;102517.53;;;8.46;64.72
59104;BME280;51449;51.676;5.812;2023-03-04T10:04:38;102521.13;;;8.41;64.65
59104;BME280;51449;51.676;5.812;2023-03-04T10:07:20;102509.03;;;8.37;65.69
59104;BME280;51449;51.676;5.812;2023-03-04T10:09:55;102513.41;;;8.33;66.28
59104;BME280;51449;51.676;5.812;2023-03-04T10:12:23;102514.78;;;8.30;66.26
59104;BME280;51449;51.676;5.812;2023-03-04T10:14:59;102511.50;;;8.28;66.42
59104;BME280;51449;51.676;5.812;2023-03-04T10:17:36;102512.06;;;8.25;67.42
59104;BME280;51449;51.676;5.812;2023-03-04T10:20:30;102503.81;;;8.25;67.06
59104;BME280;51449;51.676;5.812;2023-03-04T10:22:57;102512.31;;;8.24;66.91
59104;BME280;51449;51.676;5.812;2023-03-04T10:25:28;102512.06;;;8.25;67.18
59104;BME280;51449;51.676;5.812;2023-03-04T10:27:55;102510.13;;;8.31;67.15
59104;BME280;51449;51.676;5.812;2023-03-04T10:30:39;102503.53;;;8.37;67.31
59104;BME280;51449;51.676;5.812;2023-03-04T10:33:32;102510.09;;;8.36;67.37
59104;BME280;51449;51.676;5.812;2023-03-04T10:36:04;102501.59;;;8.38;67.74
59104;BME280;51449;51.676;5.812;2023-03-04T10:38:35;102507.94;;;8.43;67.87
59104;BME280;51449;51.676;5.812;2023-03-04T10:41:11;102501.91;;;8.46;68.17
59104;BME280;51449;51.676;5.812;2023-03-04T10:43:34;102504.91;;;8.50;67.41
59104;BME280;51449;51.676;5.812;2023-03-04T10:45:57;102499.97;;;8.52;67.45
59104;BME280;51449;51.676;5.812;2023-03-04T10:48:23;102495.00;;;8.54;67.38
59104;BME280;51449;51.676;5.812;2023-03-04T10:50:47;102489.19;;;8.61;67.22
59104;BME280;51449;51.676;5.812;2023-03-04T10:53:23;102490.25;;;8.75;66.97
59104;BME280;51449;51.676;5.812;2023-03-04T10:55:50;102493.00;;;8.85;66.89
59104;BME280;51449;51.676;5.812;2023-03-04T10:58:14;102478.13;;;8.86;66.37
59104;BME280;51449;51.676;5.812;2023-03-04T11:00:40;102475.66;;;8.85;66.66
59104;BME280;51449;51.676;5.812;2023-03-04T11:03:28;102472.31;;;8.98;66.78
59104;BME280;51449;51.676;5.812;2023-03-04T11:06:38;102479.63;;;9.18;65.98
59104;BME280;51449;51.676;5.812;2023-03-04T11:08:55;102475.19;;;9.27;65.18
59104;BME280;51449;51.676;5.812;2023-03-04T11:11:41;102470.72;;;9.36;64.74
59104;BME280;51449;51.676;5.812;2023-03-04T11:14:39;102466.88;;;9.37;64.56
59104;BME280;51449;51.676;5.812;2023-03-04T11:19:42;102464.34;;;9.46;64.75
59104;BME280;51449;51.676;5.812;2023-03-04T11:22:09;102454.97;;;9.47;63.70
59104;BME280;51449;51.676;5.812;2023-03-04T11:24:36;102466.59;;;9.39;64.00
59104;BME280;51449;51.676;5.812;2023-03-04T11:27:03;102445.75;;;9.28;63.90
59104;BME280;51449;51.676;5.812;2023-03-04T11:32:19;102453.53;;;9.15;64.67
59104;BME280;51449;51.676;5.812;2023-03-04T11:34:51;102450.78;;;9.15;64.71
59104;BME280;51449;51.676;5.812;2023-03-04T11:37:34;102453.75;;;9.19;65.51
59104;BME280;51449;51.676;5.812;2023-03-04T11:42:39;102442.97;;;9.33;65.12
59104;BME280;51449;51.676;5.812;2023-03-04T11:45:31;102435.25;;;9.35;64.59
59104;BME280;51449;51.676;5.812;2023-03-04T11:48:48;102435.81;;;9.32;64.97
59104;BME280;51449;51.676;5.812;2023-03-04T11:51:36;102431.22;;;9.22;64.80
59104;BME280;51449;51.676;5.812;2023-03-04T11:57:21;102427.44;;;9.08;65.44
59104;BME280;51449;51.676;5.812;2023-03-04T11:59:56;102429.91;;;9.09;65.73
59104;BME280;51449;51.676;5.812;2023-03-04T12:08:48;102417.47;;;9.22;65.75
59104;BME280;51449;51.676;5.812;2023-03-04T12:14:13;102403.63;;;9.32;65.74
59104;BME280;51449;51.676;5.812;2023-03-04T12:20:06;102402.19;;;9.40;65.11
59104;BME280;51449;51.676;5.812;2023-03-04T12:23:16;102409.06;;;9.42;64.81
59104;BME280;51449;51.676;5.812;2023-03-04T12:28:25;102389.53;;;9.44;64.10
59104;BME280;51449;51.676;5.812;2023-03-04T12:31:34;102383.66;;;9.51;64.45
59104;BME280;51449;51.676;5.812;2023-03-04T12:37:03;102389.00;;;9.71;64.44
59104;BME280;51449;51.676;5.812;2023-03-04T12:39:40;102370.84;;;9.70;64.53
59104;BME280;51449;51.676;5.812;2023-03-04T12:48:31;102368.81;;;9.52;64.84
59104;BME280;51449;51.676;5.812;2023-03-04T12:51:12;102368.06;;;9.46;65.24
59104;BME280;51449;51.676;5.812;2023-03-04T12:53:53;102366.66;;;9.43;65.67
59104;BME280;51449;51.676;5.812;2023-03-04T12:59:16;102375.00;;;9.33;65.80
59104;BME280;51449;51.676;5.812;2023-03-04T13:01:49;102365.16;;;9.27;65.61
59104;BME280;51449;51.676;5.812;2023-03-04T13:04:58;102366.88;;;9.18;65.78
59104;BME280;51449;51.676;5.812;2023-03-04T13:10:40;102367.06;;;8.87;69.96
59104;BME280;51449;51.676;5.812;2023-03-04T13:13:02;102367.16;;;8.77;70.71
59104;BME280;51449;51.676;5.812;2023-03-04T13:22:55;102338.81;;;8.82;71.47
59104;BME280;51449;51.676;5.812;2023-03-04T13:38:24;102317.69;;;9.46;68.38
59104;BME280;51449;51.676;5.812;2023-03-04T13:43:57;102315.63;;;9.61;68.07
59104;BME280;51449;51.676;5.812;2023-03-04T13:51:17;102312.75;;;9.72;66.57
59104;BME280;51449;51.676;5.812;2023-03-04T13:56:31;102316.66;;;9.65;66.82
59104;BME280;51449;51.676;5.812;2023-03-04T14:01:31;102317.03;;;9.59;65.17
59104;BME280;51449;51.676;5.812;2023-03-04T14:04:19;102319.84;;;9.54;63.63
59104;BME280;51449;51.676;5.812;2023-03-04T14:06:50;102309.31;;;9.56;63.60
59104;BME280;51449;51.676;5.812;2023-03-04T14:09:16;102298.84;;;9.58;63.66
59104;BME280;51449;51.676;5.812;2023-03-04T14:11:42;102308.41;;;9.65;63.61
59104;BME280;51449;51.676;5.812;2023-03-04T14:14:06;102297.88;;;9.73;63.38